sensor_id;sensor_type;location;lat;lon;timestamp;temperature;humidity
23102;DHT22;11720;51.214;22.574;2023-03-21T00:00:47;9.00;99.90
23102;DHT22;11720;51.214;22.574;2023-03-21T00:03:14;8.90;99.90
23102;DHT22;11720;51.214;22.574;2023-03-21T00:05:41;9.00;99.90
23102;DHT22;11720;51.214;22.574;2023-03-21T00:08:09;8.90;99.90
23102;DHT22;11720;51.214;22.574;2023-03-21T00:10:34;9.00;99.90
23102;DHT22;11720;51.214;22.574;2023-03-21T00:13:00;8.90;99.90
23102;DHT22;11720;51.214;22.574;2023-03-21T00:15:26;9.00;99.90
23102;DHT22;11720;51.214;22.574;2023-03-21T00:17:56;9.00;99.90
23102;DHT22;11720;51.214;22.574;2023-03-21T00:20:38;8.90;99.90
23102;DHT22;11720;51.214;22.574;2023-03-21T00:23:04;9.00;99.90
23102;DHT22;11720;51.214;22.574;2023-03-21T00:27:57;9.10;99.90
23102;DHT22;11720;51.214;22.574;2023-03-21T00:32:50;9.00;99.90
23102;DHT22;11720;51.214;22.574;2023-03-21T00:35:18;8.90;99.90
23102;DHT22;11720;51.214;22.574;2023-03-21T00:40:12;9.00;99.90
23102;DHT22;11720;51.214;22.574;2023-03-21T00:42:39;9.00;99.90
23102;DHT22;11720;51.214;22.574;2023-03-21T00:45:05;8.90;99.90
23102;DHT22;11720;51.214;22.574;2023-03-21T00:47:34;9.00;99.90
23102;DHT22;11720;51.214;22.574;2023-03-21T00:50:00;9.00;99.90
23102;DHT22;11720;51.214;22.574;2023-03-21T00:52:26;8.40;99.90
23102;DHT22;11720;51.214;22.574;2023-03-21T00:54:53;8.90;99.90
23102;DHT22;11720;51.214;22.574;2023-03-21T00:57:20;8.90;99.90
23102;DHT22;11720;51.214;22.574;2023-03-21T00:59:46;9.00;99.90
23102;DHT22;11720;51.214;22.574;2023-03-21T01:02:11;8.90;99.90
23102;DHT22;11720;51.214;22.574;2023-03-21T01:04:45;8.80;99.90
23102;DHT22;11720;51.214;22.574;2023-03-21T01:07:12;8.90;99.90
23102;DHT22;11720;51.214;22.574;2023-03-21T01:09:37;8.80;99.90
23102;DHT22;11720;51.214;22.574;2023-03-21T01:14:30;8.80;99.90
23102;DHT22;11720;51.214;22.574;2023-03-21T01:17:01;9.40;99.90
23102;DHT22;11720;51.214;22.574;2023-03-21T01:19:27;8.80;99.90
23102;DHT22;11720;51.214;22.574;2023-03-21T01:21:55;8.80;99.90
23102;DHT22;11720;51.214;22.574;2023-03-21T01:24:21;8.90;99.90
23102;DHT22;11720;51.214;22.574;2023-03-21T01:29:13;8.90;99.90
23102;DHT22;11720;51.214;22.574;2023-03-21T01:31:39;6.20;99.90
23102;DHT22;11720;51.214;22.574;2023-03-21T01:36:31;8.90;99.90
23102;DHT22;11720;51.214;22.574;2023-03-21T01:38:57;9.20;99.90
23102;DHT22;11720;51.214;22.574;2023-03-21T01:41:30;9.20;99.90
23102;DHT22;11720;51.214;22.574;2023-03-21T01:43:56;8.60;99.90
23102;DHT22;11720;51.214;22.574;2023-03-21T01:46:27;8.80;99.90
23102;DHT22;11720;51.214;22.574;2023-03-21T01:48:58;8.80;99.90
23102;DHT22;11720;51.214;22.574;2023-03-21T01:51:26;8.90;99.90
23102;DHT22;11720;51.214;22.574;2023-03-21T01:53:54;8.70;99.90
23102;DHT22;11720;51.214;22.574;2023-03-21T01:56:27;8.60;99.90
23102;DHT22;11720;51.214;22.574;2023-03-21T01:58:58;8.70;99.90
23102;DHT22;11720;51.214;22.574;2023-03-21T02:01:27;8.30;99.90
23102;DHT22;11720;51.214;22.574;2023-03-21T02:03:53;8.60;99.90
23102;DHT22;11720;51.214;22.574;2023-03-21T02:06:40;8.60;99.90
23102;DHT22;11720;51.214;22.574;2023-03-21T02:09:13;8.50;99.90
23102;DHT22;11720;51.214;22.574;2023-03-21T02:11:39;8.50;99.90
23102;DHT22;11720;51.214;22.574;2023-03-21T02:14:05;8.50;99.90
23102;DHT22;11720;51.214;22.574;2023-03-21T02:17:23;8.40;99.90
23102;DHT22;11720;51.214;22.574;2023-03-21T02:31:40;8.40;99.90
23102;DHT22;11720;51.214;22.574;2023-03-21T02:34:13;8.30;99.90
23102;DHT22;11720;51.214;22.574;2023-03-21T02:42:19;8.20;99.90
23102;DHT22;11720;51.214;22.574;2023-03-21T02:45:05;8.20;99.90
23102;DHT22;11720;51.214;22.574;2023-03-21T02:47:39;8.20;99.90
23102;DHT22;11720;51.214;22.574;2023-03-21T02:50:25;8.20;99.90
23102;DHT22;11720;51.214;22.574;2023-03-21T02:52:55;8.20;99.90
23102;DHT22;11720;51.214;22.574;2023-03-21T02:55:25;8.20;99.90
23102;DHT22;11720;51.214;22.574;2023-03-21T02:57:54;8.20;99.90
23102;DHT22;11720;51.214;22.574;2023-03-21T03:00:24;8.20;99.90
23102;DHT22;11720;51.214;22.574;2023-03-21T03:02:50;8.20;99.90
23102;DHT22;11720;51.214;22.574;2023-03-21T03:05:22;8.20;99.90
23102;DHT22;11720;51.214;22.574;2023-03-21T03:13:34;8.30;99.90
23102;DHT22;11720;51.214;22.574;2023-03-21T03:18:46;8.20;99.90
23102;DHT22;11720;51.214;22.574;2023-03-21T03:23:56;8.30;99.90
23102;DHT22;11720;51.214;22.574;2023-03-21T03:26:32;8.30;99.90
23102;DHT22;11720;51.214;22.574;2023-03-21T03:29:13;8.30;99.90
23102;DHT22;11720;51.214;22.574;2023-03-21T03:34:34;8.30;99.90
23102;DHT22;11720;51.214;22.574;2023-03-21T03:37:05;8.20;99.90
23102;DHT22;11720;51.214;22.574;2023-03-21T03:42:40;8.20;99.90
23102;DHT22;11720;51.214;22.574;2023-03-21T03:45:09;8.20;99.90
23102;DHT22;11720;51.214;22.574;2023-03-21T03:52:56;8.20;99.90
23102;DHT22;11720;51.214;22.574;2023-03-21T03:55:25;8.20;99.90
23102;DHT22;11720;51.214;22.574;2023-03-21T03:57:53;8.20;99.90
23102;DHT22;11720;51.214;22.574;2023-03-21T04:02:45;8.80;99.90
23102;DHT22;11720;51.214;22.574;2023-03-21T04:05:12;8.20;99.90
23102;DHT22;11720;51.214;22.574;2023-03-21T04:07:40;8.20;99.90
23102;DHT22;11720;51.214;22.574;2023-03-21T04:10:07;8.20;99.90
23102;DHT22;11720;51.214;22.574;2023-03-21T04:24:46;8.10;99.90
23102;DHT22;11720;51.214;22.574;2023-03-21T04:34:44;8.00;99.90
23102;DHT22;11720;51.214;22.574;2023-03-21T04:37:17;8.00;99.90
23102;DHT22;11720;51.214;22.574;2023-03-21T04:42:11;8.00;99.90
23102;DHT22;11720;51.214;22.574;2023-03-21T04:44:39;8.00;99.90
23102;DHT22;11720;51.214;22.574;2023-03-21T04:59:18;7.90;99.90
23102;DHT22;11720;51.214;22.574;2023-03-21T05:04:15;7.90;99.90
23102;DHT22;11720;51.214;22.574;2023-03-21T05:06:41;7.90;99.90
23102;DHT22;11720;51.214;22.574;2023-03-21T05:09:08;7.90;99.90
23102;DHT22;11720;51.214;22.574;2023-03-21T05:11:35;7.90;99.90
23102;DHT22;11720;51.214;22.574;2023-03-21T05:14:07;7.90;99.90
23102;DHT22;11720;51.214;22.574;2023-03-21T05:16:35;7.80;99.90
23102;DHT22;11720;51.214;22.574;2023-03-21T05:21:30;7.80;99.90
23102;DHT22;11720;51.214;22.574;2023-03-21T05:23:59;7.80;99.90
23102;DHT22;11720;51.214;22.574;2023-03-21T05:36:14;8.00;99.90
23102;DHT22;11720;51.214;22.574;2023-03-21T05:38:40;8.30;99.90
23102;DHT22;11720;51.214;22.574;2023-03-21T05:41:12;7.90;99.90
23102;DHT22;11720;51.214;22.574;2023-03-21T05:43:38;9.70;99.90
23102;DHT22;11720;51.214;22.574;2023-03-21T05:53:22;7.90;99.90
23102;DHT22;11720;51.214;22.574;2023-03-21T05:58:14;8.00;99.90
23102;DHT22;11720;51.214;22.574;2023-03-21T06:07:58;8.00;99.90
23102;DHT22;11720;51.214;22.574;2023-03-21T06:10:24;8.00;99.90
23102;DHT22;11720;51.214;22.574;2023-03-21T06:12:52;8.10;99.90
23102;DHT22;11720;51.214;22.574;2023-03-21T06:20:11;8.10;99.90
23102;DHT22;11720;51.214;22.574;2023-03-21T06:22:37;8.10;99.90
23102;DHT22;11720;51.214;22.574;2023-03-21T06:25:04;8.10;99.90
23102;DHT22;11720;51.214;22.574;2023-03-21T06:27:33;8.10;99.90
23102;DHT22;11720;51.214;22.574;2023-03-21T06:32:26;8.10;99.90
23102;DHT22;11720;51.214;22.574;2023-03-21T06:34:53;8.10;99.90
23102;DHT22;11720;51.214;22.574;2023-03-21T06:37:19;8.10;99.90
23102;DHT22;11720;51.214;22.574;2023-03-21T06:39:45;8.20;99.90
23102;DHT22;11720;51.214;22.574;2023-03-21T06:42:12;8.20;99.90
23102;DHT22;11720;51.214;22.574;2023-03-21T06:44:37;8.20;99.90
23102;DHT22;11720;51.214;22.574;2023-03-21T06:47:05;8.20;99.90
23102;DHT22;11720;51.214;22.574;2023-03-21T06:49:31;8.20;99.90
23102;DHT22;11720;51.214;22.574;2023-03-21T06:51:57;8.30;99.90
23102;DHT22;11720;51.214;22.574;2023-03-21T06:54:22;8.30;99.90
23102;DHT22;11720;51.214;22.574;2023-03-21T06:56:48;8.30;99.90
23102;DHT22;11720;51.214;22.574;2023-03-21T06:59:14;8.40;99.90
23102;DHT22;11720;51.214;22.574;2023-03-21T07:01:40;8.40;99.90
23102;DHT22;11720;51.214;22.574;2023-03-21T07:04:07;8.40;99.90
23102;DHT22;11720;51.214;22.574;2023-03-21T07:06:33;8.40;99.90
23102;DHT22;11720;51.214;22.574;2023-03-21T07:08:59;8.60;99.90
23102;DHT22;11720;51.214;22.574;2023-03-21T07:13:51;8.50;99.90
23102;DHT22;11720;51.214;22.574;2023-03-21T07:16:18;8.50;99.90
23102;DHT22;11720;51.214;22.574;2023-03-21T07:18:46;8.50;99.90
23102;DHT22;11720;51.214;22.574;2023-03-21T07:21:12;8.60;99.90
23102;DHT22;11720;51.214;22.574;2023-03-21T07:23:38;8.70;99.90
23102;DHT22;11720;51.214;22.574;2023-03-21T07:26:05;8.70;99.90
23102;DHT22;11720;51.214;22.574;2023-03-21T07:28:31;8.70;99.90
23102;DHT22;11720;51.214;22.574;2023-03-21T07:31:00;8.80;99.90
23102;DHT22;11720;51.214;22.574;2023-03-21T07:33:27;8.70;99.90
23102;DHT22;11720;51.214;22.574;2023-03-21T07:35:54;8.70;99.90
23102;DHT22;11720;51.214;22.574;2023-03-21T07:40:48;8.80;99.90
23102;DHT22;11720;51.214;22.574;2023-03-21T07:46:00;8.80;99.90
23102;DHT22;11720;51.214;22.574;2023-03-21T07:48:26;8.80;99.90
23102;DHT22;11720;51.214;22.574;2023-03-21T07:50:52;8.70;99.90
23102;DHT22;11720;51.214;22.574;2023-03-21T07:53:18;8.80;99.90
23102;DHT22;11720;51.214;22.574;2023-03-21T07:55:44;8.80;99.90
23102;DHT22;11720;51.214;22.574;2023-03-21T07:58:09;8.80;99.90
23102;DHT22;11720;51.214;22.574;2023-03-21T08:00:35;8.80;99.90
23102;DHT22;11720;51.214;22.574;2023-03-21T08:03:01;8.70;99.90
23102;DHT22;11720;51.214;22.574;2023-03-21T08:05:29;8.90;99.90
23102;DHT22;11720;51.214;22.574;2023-03-21T08:07:59;8.90;99.90
23102;DHT22;11720;51.214;22.574;2023-03-21T08:10:25;8.90;99.90
23102;DHT22;11720;51.214;22.574;2023-03-21T08:12:51;9.10;99.90
23102;DHT22;11720;51.214;22.574;2023-03-21T08:15:18;9.00;99.90
23102;DHT22;11720;51.214;22.574;2023-03-21T08:17:44;9.00;99.90
23102;DHT22;11720;51.214;22.574;2023-03-21T08:20:15;9.10;99.90
23102;DHT22;11720;51.214;22.574;2023-03-21T08:22:41;9.10;99.90
23102;DHT22;11720;51.214;22.574;2023-03-21T08:25:09;9.00;99.90
23102;DHT22;11720;51.214;22.574;2023-03-21T08:27:41;9.10;99.90
23102;DHT22;11720;51.214;22.574;2023-03-21T08:30:11;9.20;99.90
23102;DHT22;11720;51.214;22.574;2023-03-21T08:32:37;9.30;99.90
23102;DHT22;11720;51.214;22.574;2023-03-21T08:35:05;9.30;99.90
23102;DHT22;11720;51.214;22.574;2023-03-21T08:37:37;9.30;99.90
23102;DHT22;11720;51.214;22.574;2023-03-21T08:40:09;9.50;99.90
23102;DHT22;11720;51.214;22.574;2023-03-21T08:42:41;9.50;99.90
23102;DHT22;11720;51.214;22.574;2023-03-21T08:45:08;9.40;99.90
23102;DHT22;11720;51.214;22.574;2023-03-21T08:47:34;9.40;99.90
23102;DHT22;11720;51.214;22.574;2023-03-21T08:50:00;9.30;99.90
23102;DHT22;11720;51.214;22.574;2023-03-21T08:52:25;9.30;99.90
23102;DHT22;11720;51.214;22.574;2023-03-21T08:54:52;9.20;99.90
23102;DHT22;11720;51.214;22.574;2023-03-21T08:57:18;9.20;99.90
23102;DHT22;11720;51.214;22.574;2023-03-21T08:59:44;9.20;99.90
23102;DHT22;11720;51.214;22.574;2023-03-21T09:02:16;9.20;99.90
23102;DHT22;11720;51.214;22.574;2023-03-21T09:04:43;9.30;99.90
23102;DHT22;11720;51.214;22.574;2023-03-21T09:07:10;9.30;99.90
23102;DHT22;11720;51.214;22.574;2023-03-21T09:09:37;9.30;99.90
23102;DHT22;11720;51.214;22.574;2023-03-21T09:12:03;11.40;99.90
23102;DHT22;11720;51.214;22.574;2023-03-21T09:14:29;9.30;99.90
23102;DHT22;11720;51.214;22.574;2023-03-21T09:16:54;9.40;99.90
23102;DHT22;11720;51.214;22.574;2023-03-21T09:19:22;9.40;99.90
23102;DHT22;11720;51.214;22.574;2023-03-21T09:21:48;9.40;99.90
23102;DHT22;11720;51.214;22.574;2023-03-21T09:24:15;9.40;99.90
23102;DHT22;11720;51.214;22.574;2023-03-21T09:26:42;9.40;99.90
23102;DHT22;11720;51.214;22.574;2023-03-21T09:29:09;9.90;99.90
23102;DHT22;11720;51.214;22.574;2023-03-21T09:31:35;9.40;99.90
23102;DHT22;11720;51.214;22.574;2023-03-21T09:34:00;9.50;99.90
23102;DHT22;11720;51.214;22.574;2023-03-21T09:38:53;9.40;99.90
23102;DHT22;11720;51.214;22.574;2023-03-21T09:41:34;9.40;99.90
23102;DHT22;11720;51.214;22.574;2023-03-21T09:44:21;9.40;99.90
23102;DHT22;11720;51.214;22.574;2023-03-21T09:49:33;9.50;99.90
23102;DHT22;11720;51.214;22.574;2023-03-21T09:52:04;9.50;99.90
23102;DHT22;11720;51.214;22.574;2023-03-21T09:54:39;9.50;99.90
23102;DHT22;11720;51.214;22.574;2023-03-21T09:57:28;9.50;99.90
23102;DHT22;11720;51.214;22.574;2023-03-21T09:59:59;9.50;99.90
23102;DHT22;11720;51.214;22.574;2023-03-21T10:02:41;9.40;99.90
23102;DHT22;11720;51.214;22.574;2023-03-21T10:05:29;9.50;99.90
23102;DHT22;11720;51.214;22.574;2023-03-21T10:08:07;9.30;99.90
23102;DHT22;11720;51.214;22.574;2023-03-21T10:10:39;9.30;99.90
23102;DHT22;11720;51.214;22.574;2023-03-21T10:13:14;9.30;99.90
23102;DHT22;11720;51.214;22.574;2023-03-21T10:15:41;9.20;99.90
23102;DHT22;11720;51.214;22.574;2023-03-21T10:18:12;9.20;99.90
23102;DHT22;11720;51.214;22.574;2023-03-21T10:20:41;9.20;99.90
23102;DHT22;11720;51.214;22.574;2023-03-21T10:23:12;9.30;99.90
23102;DHT22;11720;51.214;22.574;2023-03-21T10:25:41;9.40;99.90
23102;DHT22;11720;51.214;22.574;2023-03-21T10:28:14;9.40;99.90
23102;DHT22;11720;51.214;22.574;2023-03-21T10:30:53;9.30;99.90
23102;DHT22;11720;51.214;22.574;2023-03-21T10:33:24;9.30;99.90
23102;DHT22;11720;51.214;22.574;2023-03-21T10:35:57;9.20;99.90
23102;DHT22;11720;51.214;22.574;2023-03-21T10:38:24;9.20;99.90
23102;DHT22;11720;51.214;22.574;2023-03-21T10:40:51;9.20;99.90
23102;DHT22;11720;51.214;22.574;2023-03-21T10:43:28;9.20;99.90
23102;DHT22;11720;51.214;22.574;2023-03-21T10:45:56;9.20;99.90
23102;DHT22;11720;51.214;22.574;2023-03-21T10:48:23;9.10;99.90
23102;DHT22;11720;51.214;22.574;2023-03-21T10:50:51;9.10;99.90
23102;DHT22;11720;51.214;22.574;2023-03-21T10:53:28;9.00;99.90
23102;DHT22;11720;51.214;22.574;2023-03-21T10:55:57;8.90;99.90
23102;DHT22;11720;51.214;22.574;2023-03-21T10:58:29;8.90;99.90
23102;DHT22;11720;51.214;22.574;2023-03-21T11:01:04;9.00;99.90
23102;DHT22;11720;51.214;22.574;2023-03-21T11:03:35;8.90;99.90
23102;DHT22;11720;51.214;22.574;2023-03-21T11:06:11;8.80;99.90
23102;DHT22;11720;51.214;22.574;2023-03-21T11:08:42;8.90;99.90
23102;DHT22;11720;51.214;22.574;2023-03-21T11:11:09;8.90;99.90
23102;DHT22;11720;51.214;22.574;2023-03-21T11:13:46;8.90;99.90
23102;DHT22;11720;51.214;22.574;2023-03-21T11:16:41;9.00;99.90
23102;DHT22;11720;51.214;22.574;2023-03-21T11:19:14;9.00;99.90
23102;DHT22;11720;51.214;22.574;2023-03-21T11:21:41;9.10;99.90
23102;DHT22;11720;51.214;22.574;2023-03-21T11:24:13;9.30;99.90
23102;DHT22;11720;51.214;22.574;2023-03-21T11:26:42;9.40;99.90
23102;DHT22;11720;51.214;22.574;2023-03-21T11:29:33;9.60;99.90
23102;DHT22;11720;51.214;22.574;2023-03-21T11:32:10;9.60;99.90
23102;DHT22;11720;51.214;22.574;2023-03-21T11:34:53;9.70;99.90
23102;DHT22;11720;51.214;22.574;2023-03-21T11:40:26;9.90;99.90
23102;DHT22;11720;51.214;22.574;2023-03-21T11:43:03;9.80;99.90
23102;DHT22;11720;51.214;22.574;2023-03-21T11:46:07;8.10;99.90
23102;DHT22;11720;51.214;22.574;2023-03-21T11:48:40;10.00;99.90
23102;DHT22;11720;51.214;22.574;2023-03-21T11:51:16;10.00;99.90
23102;DHT22;11720;51.214;22.574;2023-03-21T11:54:10;10.10;99.90
23102;DHT22;11720;51.214;22.574;2023-03-21T11:56:43;10.00;99.90
23102;DHT22;11720;51.214;22.574;2023-03-21T12:15:18;10.30;99.90
23102;DHT22;11720;51.214;22.574;2023-03-21T12:20:46;10.40;99.90
23102;DHT22;11720;51.214;22.574;2023-03-21T12:26:16;10.50;99.90
23102;DHT22;11720;51.214;22.574;2023-03-21T12:39:56;10.30;99.90
23102;DHT22;11720;51.214;22.574;2023-03-21T12:45:20;10.20;99.90
23102;DHT22;11720;51.214;22.574;2023-03-21T12:47:51;10.30;99.90
23102;DHT22;11720;51.214;22.574;2023-03-21T12:50:30;10.30;99.90
23102;DHT22;11720;51.214;22.574;2023-03-21T12:55:50;10.20;99.90
23102;DHT22;11720;51.214;22.574;2023-03-21T12:58:20;10.20;99.90
23102;DHT22;11720;51.214;22.574;2023-03-21T13:00:59;10.30;99.90
23102;DHT22;11720;51.214;22.574;2023-03-21T13:03:40;10.40;99.90
23102;DHT22;11720;51.214;22.574;2023-03-21T13:06:13;10.50;99.90
23102;DHT22;11720;51.214;22.574;2023-03-21T13:09:20;10.60;99.90
23102;DHT22;11720;51.214;22.574;2023-03-21T13:11:39;10.60;99.90
23102;DHT22;11720;51.214;22.574;2023-03-21T13:14:21;10.80;99.90
23102;DHT22;11720;51.214;22.574;2023-03-21T13:16:57;10.90;99.90
23102;DHT22;11720;51.214;22.574;2023-03-21T13:19:37;11.00;99.90
23102;DHT22;11720;51.214;22.574;2023-03-21T13:24:58;11.00;99.90
23102;DHT22;11720;51.214;22.574;2023-03-21T13:27:34;10.90;99.90
23102;DHT22;11720;51.214;22.574;2023-03-21T13:32:41;10.50;99.90
23102;DHT22;11720;51.214;22.574;2023-03-21T13:38:00;10.00;99.90
23102;DHT22;11720;51.214;22.574;2023-03-21T13:40:58;10.00;99.90
23102;DHT22;11720;51.214;22.574;2023-03-21T13:51:47;8.70;99.90
23102;DHT22;11720;51.214;22.574;2023-03-21T13:59:43;9.40;99.90
23102;DHT22;11720;51.214;22.574;2023-03-21T14:02:29;9.40;99.90
23102;DHT22;11720;51.214;22.574;2023-03-21T14:05:01;9.50;99.90
23102;DHT22;11720;51.214;22.574;2023-03-21T14:07:32;9.50;99.90
23102;DHT22;11720;51.214;22.574;2023-03-21T14:10:02;9.50;99.90
23102;DHT22;11720;51.214;22.574;2023-03-21T14:12:40;9.50;99.90
23102;DHT22;11720;51.214;22.574;2023-03-21T14:15:18;9.60;99.90
23102;DHT22;11720;51.214;22.574;2023-03-21T14:20:35;9.60;99.90
23102;DHT22;11720;51.214;22.574;2023-03-21T14:23:04;9.60;99.90
23102;DHT22;11720;51.214;22.574;2023-03-21T14:25:36;9.60;99.90
23102;DHT22;11720;51.214;22.574;2023-03-21T14:28:05;9.70;99.90
23102;DHT22;11720;51.214;22.574;2023-03-21T14:30:37;9.70;99.90
23102;DHT22;11720;51.214;22.574;2023-03-21T14:33:32;9.70;99.90
23102;DHT22;11720;51.214;22.574;2023-03-21T14:36:05;9.70;99.90
23102;DHT22;11720;51.214;22.574;2023-03-21T14:38:35;9.70;99.90
23102;DHT22;11720;51.214;22.574;2023-03-21T14:41:02;8.70;99.90
23102;DHT22;11720;51.214;22.574;2023-03-21T14:43:28;9.90;99.90
23102;DHT22;11720;51.214;22.574;2023-03-21T14:45:56;9.70;99.90
23102;DHT22;11720;51.214;22.574;2023-03-21T14:48:30;9.70;99.90
23102;DHT22;11720;51.214;22.574;2023-03-21T14:51:04;9.70;99.90
23102;DHT22;11720;51.214;22.574;2023-03-21T14:53:39;9.70;99.90
23102;DHT22;11720;51.214;22.574;2023-03-21T14:58:31;9.60;99.90
23102;DHT22;11720;51.214;22.574;2023-03-21T15:01:01;9.50;99.90
23102;DHT22;11720;51.214;22.574;2023-03-21T15:03:30;9.60;99.90
23102;DHT22;11720;51.214;22.574;2023-03-21T15:05:56;9.50;99.90
23102;DHT22;11720;51.214;22.574;2023-03-21T15:08:25;9.60;99.90
23102;DHT22;11720;51.214;22.574;2023-03-21T15:11:04;9.10;99.90
23102;DHT22;11720;51.214;22.574;2023-03-21T15:13:45;9.50;99.90
23102;DHT22;11720;51.214;22.574;2023-03-21T15:16:14;9.50;99.90
23102;DHT22;11720;51.214;22.574;2023-03-21T15:18:40;9.50;99.90
23102;DHT22;11720;51.214;22.574;2023-03-21T15:21:17;9.50;99.90
23102;DHT22;11720;51.214;22.574;2023-03-21T15:23:49;9.50;99.90
23102;DHT22;11720;51.214;22.574;2023-03-21T15:26:18;9.50;99.90
23102;DHT22;11720;51.214;22.574;2023-03-21T15:28:46;9.30;99.90
23102;DHT22;11720;51.214;22.574;2023-03-21T15:31:16;9.40;99.90
23102;DHT22;11720;51.214;22.574;2023-03-21T15:33:50;9.40;99.90
23102;DHT22;11720;51.214;22.574;2023-03-21T15:36:42;9.40;99.90
23102;DHT22;11720;51.214;22.574;2023-03-21T15:39:27;9.40;99.90
23102;DHT22;11720;51.214;22.574;2023-03-21T15:44:55;9.20;99.90
23102;DHT22;11720;51.214;22.574;2023-03-21T15:47:51;9.20;99.90
23102;DHT22;11720;51.214;22.574;2023-03-21T15:52:52;9.00;99.90
23102;DHT22;11720;51.214;22.574;2023-03-21T15:55:27;9.00;99.90
23102;DHT22;11720;51.214;22.574;2023-03-21T15:57:59;9.00;99.90
23102;DHT22;11720;51.214;22.574;2023-03-21T16:00:38;8.90;99.90
23102;DHT22;11720;51.214;22.574;2023-03-21T16:03:26;8.90;99.90
23102;DHT22;11720;51.214;22.574;2023-03-21T16:08:46;8.90;99.90
23102;DHT22;11720;51.214;22.574;2023-03-21T16:11:26;9.00;99.90
23102;DHT22;11720;51.214;22.574;2023-03-21T16:13:53;8.90;99.90
23102;DHT22;11720;51.214;22.574;2023-03-21T16:16:27;8.80;99.90
23102;DHT22;11720;51.214;22.574;2023-03-21T16:18:55;8.80;99.90
23102;DHT22;11720;51.214;22.574;2023-03-21T16:21:23;8.70;99.90
23102;DHT22;11720;51.214;22.574;2023-03-21T16:23:51;8.70;99.90
23102;DHT22;11720;51.214;22.574;2023-03-21T16:26:22;8.70;99.90
23102;DHT22;11720;51.214;22.574;2023-03-21T16:28:49;8.70;99.90
23102;DHT22;11720;51.214;22.574;2023-03-21T16:31:21;8.60;99.90
23102;DHT22;11720;51.214;22.574;2023-03-21T16:33:47;8.50;99.90
23102;DHT22;11720;51.214;22.574;2023-03-21T16:36:19;8.50;99.90
23102;DHT22;11720;51.214;22.574;2023-03-21T16:38:45;8.60;99.90
23102;DHT22;11720;51.214;22.574;2023-03-21T16:41:15;8.50;99.90
23102;DHT22;11720;51.214;22.574;2023-03-21T16:43:43;8.50;99.90
23102;DHT22;11720;51.214;22.574;2023-03-21T16:48:36;8.60;99.90
23102;DHT22;11720;51.214;22.574;2023-03-21T16:51:02;8.60;99.90
23102;DHT22;11720;51.214;22.574;2023-03-21T16:53:28;8.60;99.90
23102;DHT22;11720;51.214;22.574;2023-03-21T16:58:20;8.50;99.90
23102;DHT22;11720;51.214;22.574;2023-03-21T17:00:46;8.50;99.90
23102;DHT22;11720;51.214;22.574;2023-03-21T17:03:14;8.50;99.90
23102;DHT22;11720;51.214;22.574;2023-03-21T17:05:43;8.50;99.90
23102;DHT22;11720;51.214;22.574;2023-03-21T17:08:14;8.40;99.90
23102;DHT22;11720;51.214;22.574;2023-03-21T17:10:40;8.40;99.90
23102;DHT22;11720;51.214;22.574;2023-03-21T17:13:06;8.40;99.90
23102;DHT22;11720;51.214;22.574;2023-03-21T17:15:32;8.40;99.90
23102;DHT22;11720;51.214;22.574;2023-03-21T17:17:57;8.40;99.90
23102;DHT22;11720;51.214;22.574;2023-03-21T17:20:30;8.40;99.90
23102;DHT22;11720;51.214;22.574;2023-03-21T17:22:58;8.40;99.90
23102;DHT22;11720;51.214;22.574;2023-03-21T17:25:24;8.40;99.90
23102;DHT22;11720;51.214;22.574;2023-03-21T17:27:50;8.30;99.90
23102;DHT22;11720;51.214;22.574;2023-03-21T17:30:26;8.30;99.90
23102;DHT22;11720;51.214;22.574;2023-03-21T17:32:52;8.30;99.90
23102;DHT22;11720;51.214;22.574;2023-03-21T17:35:19;8.30;99.90
23102;DHT22;11720;51.214;22.574;2023-03-21T17:37:46;8.30;99.90
23102;DHT22;11720;51.214;22.574;2023-03-21T17:40:18;8.30;99.90
23102;DHT22;11720;51.214;22.574;2023-03-21T17:42:46;8.20;99.90
23102;DHT22;11720;51.214;22.574;2023-03-21T17:45:12;8.20;99.90
23102;DHT22;11720;51.214;22.574;2023-03-21T17:47:38;8.20;99.90
23102;DHT22;11720;51.214;22.574;2023-03-21T17:50:05;8.20;99.90
23102;DHT22;11720;51.214;22.574;2023-03-21T17:52:36;8.10;99.90
23102;DHT22;11720;51.214;22.574;2023-03-21T17:55:05;8.20;99.90
23102;DHT22;11720;51.214;22.574;2023-03-21T17:57:31;8.10;99.90
23102;DHT22;11720;51.214;22.574;2023-03-21T17:59:57;8.10;99.90
23102;DHT22;11720;51.214;22.574;2023-03-21T18:02:22;8.10;99.90
23102;DHT22;11720;51.214;22.574;2023-03-21T18:04:50;8.10;99.90
23102;DHT22;11720;51.214;22.574;2023-03-21T18:07:15;8.00;99.90
23102;DHT22;11720;51.214;22.574;2023-03-21T18:12:07;8.00;99.90
23102;DHT22;11720;51.214;22.574;2023-03-21T18:16:59;8.10;99.90
23102;DHT22;11720;51.214;22.574;2023-03-21T18:19:25;7.90;99.90
23102;DHT22;11720;51.214;22.574;2023-03-21T18:21:51;7.90;99.90
23102;DHT22;11720;51.214;22.574;2023-03-21T18:26:43;7.80;99.90
23102;DHT22;11720;51.214;22.574;2023-03-21T18:34:02;7.80;99.90
23102;DHT22;11720;51.214;22.574;2023-03-21T18:36:27;7.70;99.90
23102;DHT22;11720;51.214;22.574;2023-03-21T18:38:53;7.60;99.90
23102;DHT22;11720;51.214;22.574;2023-03-21T18:41:20;7.70;99.90
23102;DHT22;11720;51.214;22.574;2023-03-21T18:43:47;7.60;99.90
23102;DHT22;11720;51.214;22.574;2023-03-21T18:46:13;7.60;99.90
23102;DHT22;11720;51.214;22.574;2023-03-21T18:53:34;7.50;99.90
23102;DHT22;11720;51.214;22.574;2023-03-21T18:56:01;7.50;99.90
23102;DHT22;11720;51.214;22.574;2023-03-21T19:00:55;7.50;99.90
23102;DHT22;11720;51.214;22.574;2023-03-21T19:03:21;7.50;99.90
23102;DHT22;11720;51.214;22.574;2023-03-21T19:05:47;7.50;99.90
23102;DHT22;11720;51.214;22.574;2023-03-21T19:08:13;7.50;99.90
23102;DHT22;11720;51.214;22.574;2023-03-21T19:13:05;7.50;99.90
23102;DHT22;11720;51.214;22.574;2023-03-21T19:15:33;7.50;99.90
23102;DHT22;11720;51.214;22.574;2023-03-21T19:17:58;7.50;99.90
23102;DHT22;11720;51.214;22.574;2023-03-21T19:20:24;7.50;99.90
23102;DHT22;11720;51.214;22.574;2023-03-21T19:22:50;7.50;99.90
23102;DHT22;11720;51.214;22.574;2023-03-21T19:25:16;7.50;99.90
23102;DHT22;11720;51.214;22.574;2023-03-21T19:27:42;7.50;99.90
23102;DHT22;11720;51.214;22.574;2023-03-21T19:30:11;7.60;99.90
23102;DHT22;11720;51.214;22.574;2023-03-21T19:32:37;7.70;99.90
23102;DHT22;11720;51.214;22.574;2023-03-21T19:35:04;7.50;99.90
23102;DHT22;11720;51.214;22.574;2023-03-21T19:37:29;7.50;99.90
23102;DHT22;11720;51.214;22.574;2023-03-21T19:39:56;7.50;99.90
23102;DHT22;11720;51.214;22.574;2023-03-21T19:42:22;7.60;99.90
23102;DHT22;11720;51.214;22.574;2023-03-21T19:44:48;7.60;99.90
23102;DHT22;11720;51.214;22.574;2023-03-21T19:47:14;7.60;99.90
23102;DHT22;11720;51.214;22.574;2023-03-21T19:49:41;7.60;99.90
23102;DHT22;11720;51.214;22.574;2023-03-21T19:52:08;7.50;99.90
23102;DHT22;11720;51.214;22.574;2023-03-21T19:54:34;7.50;99.90